sensor_id;sensor_type;location;lat;lon;timestamp;P1;durP1;ratioP1;P2;durP2;ratioP2
6089;SDS011;3073;42.660;23.316;2023-09-19T00:01:05;13.07;;;5.27;;
6089;SDS011;3073;42.660;23.316;2023-09-19T00:03:33;12.30;;;5.97;;
6089;SDS011;3073;42.660;23.316;2023-09-19T00:06:03;10.20;;;5.60;;
6089;SDS011;3073;42.660;23.316;2023-09-19T00:08:32;8.73;;;5.63;;
6089;SDS011;3073;42.660;23.316;2023-09-19T00:10:59;11.37;;;6.37;;
6089;SDS011;3073;42.660;23.316;2023-09-19T00:13:31;14.90;;;6.00;;
6089;SDS011;3073;42.660;23.316;2023-09-19T00:15:58;11.90;;;6.57;;
6089;SDS011;3073;42.660;23.316;2023-09-19T00:18:25;12.83;;;7.80;;
6089;SDS011;3073;42.660;23.316;2023-09-19T00:20:56;16.90;;;6.97;;
6089;SDS011;3073;42.660;23.316;2023-09-19T00:23:25;10.47;;;7.23;;
6089;SDS011;3073;42.660;23.316;2023-09-19T00:25:52;13.27;;;7.07;;
6089;SDS011;3073;42.660;23.316;2023-09-19T00:28:22;13.37;;;6.50;;
6089;SDS011;3073;42.660;23.316;2023-09-19T00:30:49;7.30;;;5.97;;
6089;SDS011;3073;42.660;23.316;2023-09-19T00:33:16;7.70;;;5.67;;
6089;SDS011;3073;42.660;23.316;2023-09-19T00:35:46;15.63;;;6.33;;
6089;SDS011;3073;42.660;23.316;2023-09-19T00:38:14;9.50;;;5.83;;
6089;SDS011;3073;42.660;23.316;2023-09-19T00:40:44;7.97;;;5.90;;
6089;SDS011;3073;42.660;23.316;2023-09-19T00:43:11;6.23;;;5.50;;
6089;SDS011;3073;42.660;23.316;2023-09-19T00:45:38;10.30;;;6.13;;
6089;SDS011;3073;42.660;23.316;2023-09-19T00:48:08;14.27;;;5.40;;
6089;SDS011;3073;42.660;23.316;2023-09-19T00:50:36;6.53;;;4.40;;
6089;SDS011;3073;42.660;23.316;2023-09-19T00:53:05;8.97;;;5.17;;
6089;SDS011;3073;42.660;23.316;2023-09-19T00:55:33;15.53;;;5.67;;
6089;SDS011;3073;42.660;23.316;2023-09-19T00:58:03;9.30;;;5.30;;
6089;SDS011;3073;42.660;23.316;2023-09-19T01:00:32;9.87;;;5.67;;
6089;SDS011;3073;42.660;23.316;2023-09-19T01:02:59;8.13;;;6.30;;
6089;SDS011;3073;42.660;23.316;2023-09-19T01:05:27;10.97;;;5.63;;
6089;SDS011;3073;42.660;23.316;2023-09-19T01:07:54;12.90;;;5.37;;
6089;SDS011;3073;42.660;23.316;2023-09-19T01:10:22;9.97;;;5.73;;
6089;SDS011;3073;42.660;23.316;2023-09-19T01:12:52;9.80;;;5.13;;
6089;SDS011;3073;42.660;23.316;2023-09-19T01:15:31;6.77;;;5.77;;
6089;SDS011;3073;42.660;23.316;2023-09-19T01:18:11;9.20;;;5.97;;
6089;SDS011;3073;42.660;23.316;2023-09-19T01:20:51;9.10;;;5.93;;
6089;SDS011;3073;42.660;23.316;2023-09-19T01:23:25;9.43;;;5.10;;
6089;SDS011;3073;42.660;23.316;2023-09-19T01:26:05;8.93;;;5.60;;
6089;SDS011;3073;42.660;23.316;2023-09-19T01:28:45;10.10;;;5.07;;
6089;SDS011;3073;42.660;23.316;2023-09-19T01:31:22;7.67;;;5.63;;
6089;SDS011;3073;42.660;23.316;2023-09-19T01:33:54;8.93;;;6.50;;
6089;SDS011;3073;42.660;23.316;2023-09-19T01:36:30;12.27;;;7.00;;
6089;SDS011;3073;42.660;23.316;2023-09-19T01:38:59;13.70;;;7.87;;
6089;SDS011;3073;42.660;23.316;2023-09-19T01:41:38;10.57;;;7.50;;
6089;SDS011;3073;42.660;23.316;2023-09-19T01:44:12;9.57;;;7.93;;
6089;SDS011;3073;42.660;23.316;2023-09-19T01:46:47;9.60;;;8.17;;
6089;SDS011;3073;42.660;23.316;2023-09-19T01:49:18;9.77;;;8.10;;
6089;SDS011;3073;42.660;23.316;2023-09-19T01:51:54;14.83;;;8.70;;
6089;SDS011;3073;42.660;23.316;2023-09-19T01:54:31;9.43;;;7.57;;
6089;SDS011;3073;42.660;23.316;2023-09-19T01:57:05;14.00;;;7.93;;
6089;SDS011;3073;42.660;23.316;2023-09-19T01:59:41;11.43;;;8.37;;
6089;SDS011;3073;42.660;23.316;2023-09-19T02:02:13;12.83;;;8.33;;
6089;SDS011;3073;42.660;23.316;2023-09-19T02:04:43;11.27;;;8.50;;
6089;SDS011;3073;42.660;23.316;2023-09-19T02:07:10;24.63;;;9.27;;
6089;SDS011;3073;42.660;23.316;2023-09-19T02:09:37;13.93;;;8.67;;
6089;SDS011;3073;42.660;23.316;2023-09-19T02:12:05;13.50;;;9.43;;
6089;SDS011;3073;42.660;23.316;2023-09-19T02:14:32;10.93;;;7.70;;
6089;SDS011;3073;42.660;23.316;2023-09-19T02:17:01;10.87;;;8.43;;
6089;SDS011;3073;42.660;23.316;2023-09-19T02:19:30;13.40;;;8.63;;
6089;SDS011;3073;42.660;23.316;2023-09-19T02:21:59;14.43;;;9.30;;
6089;SDS011;3073;42.660;23.316;2023-09-19T02:24:28;13.50;;;9.13;;
6089;SDS011;3073;42.660;23.316;2023-09-19T02:26:56;11.20;;;8.70;;
6089;SDS011;3073;42.660;23.316;2023-09-19T02:29:24;23.77;;;8.97;;
6089;SDS011;3073;42.660;23.316;2023-09-19T02:31:52;12.20;;;8.97;;
6089;SDS011;3073;42.660;23.316;2023-09-19T02:34:21;16.13;;;8.30;;
6089;SDS011;3073;42.660;23.316;2023-09-19T02:36:49;14.03;;;8.80;;
6089;SDS011;3073;42.660;23.316;2023-09-19T02:39:18;14.20;;;9.03;;
6089;SDS011;3073;42.660;23.316;2023-09-19T02:41:45;15.47;;;8.40;;
6089;SDS011;3073;42.660;23.316;2023-09-19T02:44:12;12.90;;;8.67;;
6089;SDS011;3073;42.660;23.316;2023-09-19T02:46:39;10.03;;;8.10;;
6089;SDS011;3073;42.660;23.316;2023-09-19T02:49:07;13.93;;;7.73;;
6089;SDS011;3073;42.660;23.316;2023-09-19T02:51:34;17.83;;;9.23;;
6089;SDS011;3073;42.660;23.316;2023-09-19T02:54:02;11.23;;;8.50;;
6089;SDS011;3073;42.660;23.316;2023-09-19T02:56:29;11.73;;;7.30;;
6089;SDS011;3073;42.660;23.316;2023-09-19T02:58:58;19.37;;;8.30;;
6089;SDS011;3073;42.660;23.316;2023-09-19T03:01:25;10.37;;;7.87;;
6089;SDS011;3073;42.660;23.316;2023-09-19T03:03:53;11.73;;;8.30;;
6089;SDS011;3073;42.660;23.316;2023-09-19T03:06:20;16.13;;;8.07;;
6089;SDS011;3073;42.660;23.316;2023-09-19T03:08:47;9.47;;;7.63;;
6089;SDS011;3073;42.660;23.316;2023-09-19T03:11:18;11.37;;;8.17;;
6089;SDS011;3073;42.660;23.316;2023-09-19T03:13:50;12.30;;;8.50;;
6089;SDS011;3073;42.660;23.316;2023-09-19T03:16:18;12.93;;;8.00;;
6089;SDS011;3073;42.660;23.316;2023-09-19T03:18:47;13.77;;;8.60;;
6089;SDS011;3073;42.660;23.316;2023-09-19T03:21:14;11.20;;;8.10;;
6089;SDS011;3073;42.660;23.316;2023-09-19T03:23:41;12.97;;;8.33;;
6089;SDS011;3073;42.660;23.316;2023-09-19T03:26:10;12.70;;;7.63;;
6089;SDS011;3073;42.660;23.316;2023-09-19T03:28:39;12.50;;;8.90;;
6089;SDS011;3073;42.660;23.316;2023-09-19T03:31:06;9.80;;;7.77;;
6089;SDS011;3073;42.660;23.316;2023-09-19T03:33:33;8.60;;;7.00;;
6089;SDS011;3073;42.660;23.316;2023-09-19T03:36:00;13.90;;;8.70;;
6089;SDS011;3073;42.660;23.316;2023-09-19T03:38:30;16.57;;;8.20;;
6089;SDS011;3073;42.660;23.316;2023-09-19T03:40:58;12.40;;;8.70;;
6089;SDS011;3073;42.660;23.316;2023-09-19T03:43:25;11.30;;;8.50;;
6089;SDS011;3073;42.660;23.316;2023-09-19T03:45:53;10.70;;;8.20;;
6089;SDS011;3073;42.660;23.316;2023-09-19T03:48:20;12.20;;;8.10;;
6089;SDS011;3073;42.660;23.316;2023-09-19T03:50:48;11.43;;;8.37;;
6089;SDS011;3073;42.660;23.316;2023-09-19T03:53:16;24.03;;;9.07;;
6089;SDS011;3073;42.660;23.316;2023-09-19T03:55:44;11.33;;;9.03;;
6089;SDS011;3073;42.660;23.316;2023-09-19T03:58:11;12.97;;;9.80;;
6089;SDS011;3073;42.660;23.316;2023-09-19T04:00:37;20.10;;;8.40;;
6089;SDS011;3073;42.660;23.316;2023-09-19T04:03:06;11.67;;;8.73;;
6089;SDS011;3073;42.660;23.316;2023-09-19T04:05:33;14.90;;;8.10;;
6089;SDS011;3073;42.660;23.316;2023-09-19T04:08:00;15.90;;;8.50;;
6089;SDS011;3073;42.660;23.316;2023-09-19T04:10:26;14.70;;;9.80;;
6089;SDS011;3073;42.660;23.316;2023-09-19T04:12:59;13.30;;;9.40;;
6089;SDS011;3073;42.660;23.316;2023-09-19T04:15:26;21.53;;;10.87;;
6089;SDS011;3073;42.660;23.316;2023-09-19T04:17:53;17.07;;;10.60;;
6089;SDS011;3073;42.660;23.316;2023-09-19T04:20:21;17.67;;;11.30;;
6089;SDS011;3073;42.660;23.316;2023-09-19T04:22:49;19.20;;;9.63;;
6089;SDS011;3073;42.660;23.316;2023-09-19T04:25:15;17.83;;;10.80;;
6089;SDS011;3073;42.660;23.316;2023-09-19T04:27:43;18.93;;;10.60;;
6089;SDS011;3073;42.660;23.316;2023-09-19T04:30:11;16.40;;;9.43;;
6089;SDS011;3073;42.660;23.316;2023-09-19T04:32:40;16.80;;;9.37;;
6089;SDS011;3073;42.660;23.316;2023-09-19T04:35:07;16.40;;;11.53;;
6089;SDS011;3073;42.660;23.316;2023-09-19T04:37:38;18.03;;;10.30;;
6089;SDS011;3073;42.660;23.316;2023-09-19T04:40:06;15.27;;;9.87;;
6089;SDS011;3073;42.660;23.316;2023-09-19T04:42:38;15.40;;;9.77;;
6089;SDS011;3073;42.660;23.316;2023-09-19T04:45:07;19.47;;;10.40;;
6089;SDS011;3073;42.660;23.316;2023-09-19T04:47:35;17.03;;;10.33;;
6089;SDS011;3073;42.660;23.316;2023-09-19T04:50:04;15.43;;;9.53;;
6089;SDS011;3073;42.660;23.316;2023-09-19T04:52:33;23.53;;;9.83;;
6089;SDS011;3073;42.660;23.316;2023-09-19T04:55:01;20.30;;;10.10;;
6089;SDS011;3073;42.660;23.316;2023-09-19T04:57:29;18.77;;;9.77;;
6089;SDS011;3073;42.660;23.316;2023-09-19T04:59:56;14.57;;;9.23;;
6089;SDS011;3073;42.660;23.316;2023-09-19T05:02:23;18.80;;;9.53;;
6089;SDS011;3073;42.660;23.316;2023-09-19T05:04:50;17.60;;;9.20;;
6089;SDS011;3073;42.660;23.316;2023-09-19T05:07:18;18.23;;;8.90;;
6089;SDS011;3073;42.660;23.316;2023-09-19T05:09:51;15.67;;;9.40;;
6089;SDS011;3073;42.660;23.316;2023-09-19T05:12:19;31.93;;;9.97;;
6089;SDS011;3073;42.660;23.316;2023-09-19T05:14:46;21.40;;;9.77;;
6089;SDS011;3073;42.660;23.316;2023-09-19T05:17:13;21.73;;;9.40;;
6089;SDS011;3073;42.660;23.316;2023-09-19T05:19:42;14.97;;;8.80;;
6089;SDS011;3073;42.660;23.316;2023-09-19T05:22:09;17.37;;;8.80;;
6089;SDS011;3073;42.660;23.316;2023-09-19T05:24:36;24.37;;;8.00;;
6089;SDS011;3073;42.660;23.316;2023-09-19T05:27:04;16.00;;;9.60;;
6089;SDS011;3073;42.660;23.316;2023-09-19T05:29:34;18.47;;;8.40;;
6089;SDS011;3073;42.660;23.316;2023-09-19T05:32:00;17.83;;;8.80;;
6089;SDS011;3073;42.660;23.316;2023-09-19T05:34:29;19.77;;;8.63;;
6089;SDS011;3073;42.660;23.316;2023-09-19T05:36:55;16.63;;;8.27;;
6089;SDS011;3073;42.660;23.316;2023-09-19T05:39:22;12.57;;;7.20;;
6089;SDS011;3073;42.660;23.316;2023-09-19T05:41:49;14.03;;;7.80;;
6089;SDS011;3073;42.660;23.316;2023-09-19T05:44:16;20.87;;;8.10;;
6089;SDS011;3073;42.660;23.316;2023-09-19T05:46:44;20.97;;;7.90;;
6089;SDS011;3073;42.660;23.316;2023-09-19T05:49:13;19.90;;;9.23;;
6089;SDS011;3073;42.660;23.316;2023-09-19T05:51:41;12.80;;;7.47;;
6089;SDS011;3073;42.660;23.316;2023-09-19T05:54:07;20.80;;;7.27;;
6089;SDS011;3073;42.660;23.316;2023-09-19T05:56:36;13.03;;;8.17;;
6089;SDS011;3073;42.660;23.316;2023-09-19T05:59:03;18.93;;;8.47;;
6089;SDS011;3073;42.660;23.316;2023-09-19T06:01:30;15.97;;;7.00;;
6089;SDS011;3073;42.660;23.316;2023-09-19T06:04:00;16.83;;;7.73;;
6089;SDS011;3073;42.660;23.316;2023-09-19T06:06:27;19.90;;;8.33;;
6089;SDS011;3073;42.660;23.316;2023-09-19T06:08:55;10.73;;;6.83;;
6089;SDS011;3073;42.660;23.316;2023-09-19T06:11:22;22.77;;;7.90;;
6089;SDS011;3073;42.660;23.316;2023-09-19T06:13:51;10.20;;;6.10;;
6089;SDS011;3073;42.660;23.316;2023-09-19T06:16:18;14.60;;;6.40;;
6089;SDS011;3073;42.660;23.316;2023-09-19T06:18:54;17.73;;;6.77;;
6089;SDS011;3073;42.660;23.316;2023-09-19T06:21:23;17.60;;;7.57;;
6089;SDS011;3073;42.660;23.316;2023-09-19T06:23:52;14.33;;;6.70;;
6089;SDS011;3073;42.660;23.316;2023-09-19T06:26:18;9.90;;;6.83;;
6089;SDS011;3073;42.660;23.316;2023-09-19T06:28:45;8.63;;;6.47;;
6089;SDS011;3073;42.660;23.316;2023-09-19T06:31:12;11.20;;;8.03;;
6089;SDS011;3073;42.660;23.316;2023-09-19T06:33:39;11.47;;;7.80;;
6089;SDS011;3073;42.660;23.316;2023-09-19T06:36:06;9.63;;;6.97;;
6089;SDS011;3073;42.660;23.316;2023-09-19T06:38:35;18.57;;;6.90;;
6089;SDS011;3073;42.660;23.316;2023-09-19T06:41:02;9.83;;;5.87;;
6089;SDS011;3073;42.660;23.316;2023-09-19T06:43:30;11.23;;;7.10;;
6089;SDS011;3073;42.660;23.316;2023-09-19T06:45:59;11.80;;;6.17;;
6089;SDS011;3073;42.660;23.316;2023-09-19T06:48:26;8.90;;;5.50;;
6089;SDS011;3073;42.660;23.316;2023-09-19T06:50:54;10.70;;;6.13;;
6089;SDS011;3073;42.660;23.316;2023-09-19T06:53:21;9.40;;;6.00;;
6089;SDS011;3073;42.660;23.316;2023-09-19T06:55:50;15.93;;;5.90;;
6089;SDS011;3073;42.660;23.316;2023-09-19T06:58:17;12.80;;;6.13;;
6089;SDS011;3073;42.660;23.316;2023-09-19T07:00:45;6.60;;;5.17;;
6089;SDS011;3073;42.660;23.316;2023-09-19T07:03:13;10.93;;;5.97;;
6089;SDS011;3073;42.660;23.316;2023-09-19T07:05:41;10.20;;;4.90;;
6089;SDS011;3073;42.660;23.316;2023-09-19T07:08:09;6.30;;;4.80;;
6089;SDS011;3073;42.660;23.316;2023-09-19T07:10:38;8.80;;;5.40;;
6089;SDS011;3073;42.660;23.316;2023-09-19T07:13:07;9.40;;;5.30;;
6089;SDS011;3073;42.660;23.316;2023-09-19T07:15:36;9.23;;;5.77;;
6089;SDS011;3073;42.660;23.316;2023-09-19T07:18:07;9.10;;;5.30;;
6089;SDS011;3073;42.660;23.316;2023-09-19T07:20:36;10.47;;;5.90;;
6089;SDS011;3073;42.660;23.316;2023-09-19T07:23:03;12.33;;;5.83;;
6089;SDS011;3073;42.660;23.316;2023-09-19T07:25:31;6.97;;;4.50;;
6089;SDS011;3073;42.660;23.316;2023-09-19T07:27:58;10.10;;;5.90;;
6089;SDS011;3073;42.660;23.316;2023-09-19T07:30:27;15.83;;;5.67;;
6089;SDS011;3073;42.660;23.316;2023-09-19T07:32:55;9.53;;;5.80;;
6089;SDS011;3073;42.660;23.316;2023-09-19T07:35:22;13.23;;;5.33;;
6089;SDS011;3073;42.660;23.316;2023-09-19T07:37:49;12.60;;;5.80;;
6089;SDS011;3073;42.660;23.316;2023-09-19T07:40:16;10.97;;;5.10;;
6089;SDS011;3073;42.660;23.316;2023-09-19T07:42:44;12.80;;;5.27;;
6089;SDS011;3073;42.660;23.316;2023-09-19T07:45:12;9.87;;;6.07;;
6089;SDS011;3073;42.660;23.316;2023-09-19T07:47:45;11.40;;;6.67;;
6089;SDS011;3073;42.660;23.316;2023-09-19T07:50:12;13.03;;;5.50;;
6089;SDS011;3073;42.660;23.316;2023-09-19T07:52:41;7.87;;;5.20;;
6089;SDS011;3073;42.660;23.316;2023-09-19T07:55:08;9.60;;;5.60;;
6089;SDS011;3073;42.660;23.316;2023-09-19T07:57:36;9.70;;;5.50;;
6089;SDS011;3073;42.660;23.316;2023-09-19T08:00:07;8.50;;;5.50;;
6089;SDS011;3073;42.660;23.316;2023-09-19T08:02:36;14.03;;;5.93;;
6089;SDS011;3073;42.660;23.316;2023-09-19T08:05:05;13.13;;;5.50;;
6089;SDS011;3073;42.660;23.316;2023-09-19T08:07:36;10.20;;;5.20;;
6089;SDS011;3073;42.660;23.316;2023-09-19T08:10:03;9.80;;;5.43;;
6089;SDS011;3073;42.660;23.316;2023-09-19T08:12:33;11.30;;;5.70;;
6089;SDS011;3073;42.660;23.316;2023-09-19T08:15:01;8.90;;;5.33;;
6089;SDS011;3073;42.660;23.316;2023-09-19T08:17:28;10.20;;;5.67;;
6089;SDS011;3073;42.660;23.316;2023-09-19T08:19:54;13.57;;;5.63;;
6089;SDS011;3073;42.660;23.316;2023-09-19T08:22:24;12.70;;;7.07;;
6089;SDS011;3073;42.660;23.316;2023-09-19T08:24:52;29.37;;;6.60;;
6089;SDS011;3073;42.660;23.316;2023-09-19T08:27:18;14.43;;;6.30;;
6089;SDS011;3073;42.660;23.316;2023-09-19T08:29:45;11.70;;;6.90;;
6089;SDS011;3073;42.660;23.316;2023-09-19T08:32:12;8.30;;;5.57;;
6089;SDS011;3073;42.660;23.316;2023-09-19T08:34:40;11.27;;;6.43;;
6089;SDS011;3073;42.660;23.316;2023-09-19T08:37:06;10.13;;;7.10;;
6089;SDS011;3073;42.660;23.316;2023-09-19T08:39:35;23.10;;;6.13;;
6089;SDS011;3073;42.660;23.316;2023-09-19T08:42:03;8.03;;;5.67;;
6089;SDS011;3073;42.660;23.316;2023-09-19T08:44:31;11.47;;;5.90;;
6089;SDS011;3073;42.660;23.316;2023-09-19T08:47:08;12.13;;;6.63;;
6089;SDS011;3073;42.660;23.316;2023-09-19T08:49:41;18.60;;;7.22;;
6089;SDS011;3073;42.660;23.316;2023-09-19T08:52:19;13.82;;;6.50;;
6089;SDS011;3073;42.660;23.316;2023-09-19T08:54:51;13.73;;;6.70;;
6089;SDS011;3073;42.660;23.316;2023-09-19T08:57:20;14.65;;;6.25;;
6089;SDS011;3073;42.660;23.316;2023-09-19T08:59:49;13.38;;;6.50;;
6089;SDS011;3073;42.660;23.316;2023-09-19T09:02:17;17.98;;;6.93;;
6089;SDS011;3073;42.660;23.316;2023-09-19T09:04:45;13.73;;;7.32;;
6089;SDS011;3073;42.660;23.316;2023-09-19T09:07:13;17.02;;;6.95;;
6089;SDS011;3073;42.660;23.316;2023-09-19T09:09:41;10.02;;;7.03;;
6089;SDS011;3073;42.660;23.316;2023-09-19T09:12:11;10.75;;;6.20;;
6089;SDS011;3073;42.660;23.316;2023-09-19T09:14:40;9.95;;;5.75;;
6089;SDS011;3073;42.660;23.316;2023-09-19T09:17:08;9.85;;;7.43;;
6089;SDS011;3073;42.660;23.316;2023-09-19T09:19:35;18.25;;;7.18;;
6089;SDS011;3073;42.660;23.316;2023-09-19T09:22:06;15.07;;;7.47;;
6089;SDS011;3073;42.660;23.316;2023-09-19T09:24:34;12.38;;;7.40;;
6089;SDS011;3073;42.660;23.316;2023-09-19T09:27:03;17.48;;;7.05;;
6089;SDS011;3073;42.660;23.316;2023-09-19T09:29:44;10.25;;;7.45;;
6089;SDS011;3073;42.660;23.316;2023-09-19T09:32:18;18.13;;;7.90;;
6089;SDS011;3073;42.660;23.316;2023-09-19T09:34:47;12.95;;;7.45;;
6089;SDS011;3073;42.660;23.316;2023-09-19T09:37:17;16.02;;;6.93;;
6089;SDS011;3073;42.660;23.316;2023-09-19T09:39:52;13.52;;;8.40;;
6089;SDS011;3073;42.660;23.316;2023-09-19T09:42:30;39.45;;;7.32;;
6089;SDS011;3073;42.660;23.316;2023-09-19T09:45:14;13.93;;;6.25;;
6089;SDS011;3073;42.660;23.316;2023-09-19T09:47:43;16.48;;;7.30;;
6089;SDS011;3073;42.660;23.316;2023-09-19T09:50:25;12.35;;;6.93;;
6089;SDS011;3073;42.660;23.316;2023-09-19T09:52:55;19.33;;;6.80;;
6089;SDS011;3073;42.660;23.316;2023-09-19T09:55:36;12.88;;;5.95;;
6089;SDS011;3073;42.660;23.316;2023-09-19T09:58:31;22.73;;;6.82;;
6089;SDS011;3073;42.660;23.316;2023-09-19T10:01:01;12.48;;;6.97;;
6089;SDS011;3073;42.660;23.316;2023-09-19T10:03:34;16.83;;;6.85;;
6089;SDS011;3073;42.660;23.316;2023-09-19T10:06:05;14.15;;;7.13;;
6089;SDS011;3073;42.660;23.316;2023-09-19T10:09:03;10.05;;;6.47;;
6089;SDS011;3073;42.660;23.316;2023-09-19T10:11:40;13.13;;;7.55;;
6089;SDS011;3073;42.660;23.316;2023-09-19T10:14:09;11.82;;;6.15;;
6089;SDS011;3073;42.660;23.316;2023-09-19T10:16:44;10.85;;;6.47;;
6089;SDS011;3073;42.660;23.316;2023-09-19T10:19:15;10.10;;;6.25;;
6089;SDS011;3073;42.660;23.316;2023-09-19T10:21:43;13.57;;;6.53;;
6089;SDS011;3073;42.660;23.316;2023-09-19T10:24:11;18.13;;;6.70;;
6089;SDS011;3073;42.660;23.316;2023-09-19T10:26:41;13.82;;;5.68;;
6089;SDS011;3073;42.660;23.316;2023-09-19T10:29:10;12.70;;;5.70;;
6089;SDS011;3073;42.660;23.316;2023-09-19T10:31:42;13.05;;;6.68;;
6089;SDS011;3073;42.660;23.316;2023-09-19T10:34:13;10.70;;;5.88;;
6089;SDS011;3073;42.660;23.316;2023-09-19T10:36:43;16.05;;;5.90;;
6089;SDS011;3073;42.660;23.316;2023-09-19T10:39:12;17.23;;;7.85;;
6089;SDS011;3073;42.660;23.316;2023-09-19T10:41:43;10.57;;;6.53;;
6089;SDS011;3073;42.660;23.316;2023-09-19T10:44:21;21.30;;;6.90;;
6089;SDS011;3073;42.660;23.316;2023-09-19T10:46:51;10.68;;;5.75;;
6089;SDS011;3073;42.660;23.316;2023-09-19T10:49:19;11.55;;;5.60;;
6089;SDS011;3073;42.660;23.316;2023-09-19T10:51:47;11.52;;;7.13;;
6089;SDS011;3073;42.660;23.316;2023-09-19T10:54:22;12.00;;;6.35;;
6089;SDS011;3073;42.660;23.316;2023-09-19T10:56:53;16.10;;;6.80;;
6089;SDS011;3073;42.660;23.316;2023-09-19T10:59:24;19.67;;;6.90;;
6089;SDS011;3073;42.660;23.316;2023-09-19T11:02:15;13.85;;;6.57;;
6089;SDS011;3073;42.660;23.316;2023-09-19T11:04:45;8.70;;;6.28;;
6089;SDS011;3073;42.660;23.316;2023-09-19T11:07:14;13.60;;;6.88;;
6089;SDS011;3073;42.660;23.316;2023-09-19T11:09:45;12.17;;;6.53;;
6089;SDS011;3073;42.660;23.316;2023-09-19T11:21:38;12.00;;;6.13;;
6089;SDS011;3073;42.660;23.316;2023-09-19T11:24:30;8.88;;;5.55;;
6089;SDS011;3073;42.660;23.316;2023-09-19T11:27:09;8.88;;;5.63;;
6089;SDS011;3073;42.660;23.316;2023-09-19T11:29:38;20.13;;;6.75;;
6089;SDS011;3073;42.660;23.316;2023-09-19T11:32:06;16.33;;;5.93;;
6089;SDS011;3073;42.660;23.316;2023-09-19T11:34:40;11.90;;;6.40;;
6089;SDS011;3073;42.660;23.316;2023-09-19T11:40:47;11.90;;;5.82;;
6089;SDS011;3073;42.660;23.316;2023-09-19T11:43:30;16.55;;;6.65;;
6089;SDS011;3073;42.660;23.316;2023-09-19T11:46:03;9.93;;;6.35;;
6089;SDS011;3073;42.660;23.316;2023-09-19T11:48:33;16.60;;;5.85;;
6089;SDS011;3073;42.660;23.316;2023-09-19T11:53:53;8.63;;;5.75;;
6089;SDS011;3073;42.660;23.316;2023-09-19T11:56:22;8.60;;;6.32;;
6089;SDS011;3073;42.660;23.316;2023-09-19T11:58:51;8.63;;;5.55;;
6089;SDS011;3073;42.660;23.316;2023-09-19T12:01:26;10.73;;;5.85;;
6089;SDS011;3073;42.660;23.316;2023-09-19T12:03:58;13.10;;;6.70;;
6089;SDS011;3073;42.660;23.316;2023-09-19T12:06:31;13.40;;;6.85;;
6089;SDS011;3073;42.660;23.316;2023-09-19T12:08:58;12.13;;;6.68;;
6089;SDS011;3073;42.660;23.316;2023-09-19T12:11:32;9.43;;;6.13;;
6089;SDS011;3073;42.660;23.316;2023-09-19T12:14:01;13.30;;;5.45;;
6089;SDS011;3073;42.660;23.316;2023-09-19T12:16:30;8.85;;;5.47;;
6089;SDS011;3073;42.660;23.316;2023-09-19T12:18:58;8.10;;;5.93;;
6089;SDS011;3073;42.660;23.316;2023-09-19T12:21:58;13.02;;;5.30;;
6089;SDS011;3073;42.660;23.316;2023-09-19T12:24:37;18.23;;;6.57;;
6089;SDS011;3073;42.660;23.316;2023-09-19T12:27:09;10.43;;;5.60;;
6089;SDS011;3073;42.660;23.316;2023-09-19T12:29:43;12.07;;;5.07;;
6089;SDS011;3073;42.660;23.316;2023-09-19T12:32:11;11.23;;;5.43;;
6089;SDS011;3073;42.660;23.316;2023-09-19T12:34:42;13.48;;;5.68;;
6089;SDS011;3073;42.660;23.316;2023-09-19T12:37:12;17.42;;;5.20;;
6089;SDS011;3073;42.660;23.316;2023-09-19T12:39:44;10.10;;;5.45;;
6089;SDS011;3073;42.660;23.316;2023-09-19T12:42:14;10.10;;;5.32;;
6089;SDS011;3073;42.660;23.316;2023-09-19T12:44:42;9.23;;;5.43;;
6089;SDS011;3073;42.660;23.316;2023-09-19T12:47:12;10.40;;;5.32;;
6089;SDS011;3073;42.660;23.316;2023-09-19T12:52:40;7.53;;;5.28;;
6089;SDS011;3073;42.660;23.316;2023-09-19T12:55:18;7.90;;;5.20;;
6089;SDS011;3073;42.660;23.316;2023-09-19T12:57:55;10.85;;;5.72;;
6089;SDS011;3073;42.660;23.316;2023-09-19T13:00:31;6.60;;;5.28;;
6089;SDS011;3073;42.660;23.316;2023-09-19T13:03:09;9.52;;;5.10;;
6089;SDS011;3073;42.660;23.316;2023-09-19T13:05:51;10.20;;;5.13;;
6089;SDS011;3073;42.660;23.316;2023-09-19T13:08:23;11.75;;;5.35;;
6089;SDS011;3073;42.660;23.316;2023-09-19T13:11:00;12.77;;;5.30;;
6089;SDS011;3073;42.660;23.316;2023-09-19T13:13:39;9.25;;;5.55;;
6089;SDS011;3073;42.660;23.316;2023-09-19T13:16:09;10.60;;;5.40;;
6089;SDS011;3073;42.660;23.316;2023-09-19T13:18:43;9.02;;;4.80;;
6089;SDS011;3073;42.660;23.316;2023-09-19T13:21:11;9.48;;;6.03;;
6089;SDS011;3073;42.660;23.316;2023-09-19T13:23:48;9.82;;;5.80;;
6089;SDS011;3073;42.660;23.316;2023-09-19T13:26:16;5.68;;;4.82;;
6089;SDS011;3073;42.660;23.316;2023-09-19T13:28:43;15.32;;;5.43;;
6089;SDS011;3073;42.660;23.316;2023-09-19T13:31:10;12.38;;;4.95;;
6089;SDS011;3073;42.660;23.316;2023-09-19T13:33:42;11.23;;;4.85;;
6089;SDS011;3073;42.660;23.316;2023-09-19T13:36:09;14.13;;;5.50;;
6089;SDS011;3073;42.660;23.316;2023-09-19T13:38:37;11.73;;;5.82;;
6089;SDS011;3073;42.660;23.316;2023-09-19T13:41:05;12.98;;;5.60;;
6089;SDS011;3073;42.660;23.316;2023-09-19T13:43:32;13.43;;;6.03;;
6089;SDS011;3073;42.660;23.316;2023-09-19T13:45:58;6.03;;;4.88;;
6089;SDS011;3073;42.660;23.316;2023-09-19T13:48:26;9.25;;;5.20;;
6089;SDS011;3073;42.660;23.316;2023-09-19T13:50:55;7.47;;;4.88;;
6089;SDS011;3073;42.660;23.316;2023-09-19T13:53:23;12.07;;;5.43;;
6089;SDS011;3073;42.660;23.316;2023-09-19T13:55:51;7.57;;;5.40;;
6089;SDS011;3073;42.660;23.316;2023-09-19T13:58:19;8.88;;;4.97;;
6089;SDS011;3073;42.660;23.316;2023-09-19T14:00:46;6.35;;;5.43;;
6089;SDS011;3073;42.660;23.316;2023-09-19T14:03:13;8.68;;;5.35;;
6089;SDS011;3073;42.660;23.316;2023-09-19T14:05:40;9.73;;;5.18;;
6089;SDS011;3073;42.660;23.316;2023-09-19T14:08:08;15.15;;;5.78;;
6089;SDS011;3073;42.660;23.316;2023-09-19T14:10:35;7.95;;;5.07;;
6089;SDS011;3073;42.660;23.316;2023-09-19T14:13:02;9.50;;;6.30;;
6089;SDS011;3073;42.660;23.316;2023-09-19T14:15:30;9.00;;;5.80;;
6089;SDS011;3073;42.660;23.316;2023-09-19T14:18:00;9.02;;;5.47;;
6089;SDS011;3073;42.660;23.316;2023-09-19T14:20:27;9.48;;;5.80;;
6089;SDS011;3073;42.660;23.316;2023-09-19T14:22:55;10.35;;;6.60;;
6089;SDS011;3073;42.660;23.316;2023-09-19T14:25:24;9.90;;;5.80;;
6089;SDS011;3073;42.660;23.316;2023-09-19T14:27:51;7.40;;;6.22;;
6089;SDS011;3073;42.660;23.316;2023-09-19T14:30:18;14.07;;;7.47;;
6089;SDS011;3073;42.660;23.316;2023-09-19T14:32:46;7.22;;;5.20;;
6089;SDS011;3073;42.660;23.316;2023-09-19T14:35:13;14.43;;;6.32;;
6089;SDS011;3073;42.660;23.316;2023-09-19T14:37:40;12.90;;;5.57;;
6089;SDS011;3073;42.660;23.316;2023-09-19T14:40:07;10.60;;;7.15;;
6089;SDS011;3073;42.660;23.316;2023-09-19T14:42:38;11.55;;;6.20;;
6089;SDS011;3073;42.660;23.316;2023-09-19T14:45:06;21.58;;;15.75;;
6089;SDS011;3073;42.660;23.316;2023-09-19T14:47:34;29.95;;;18.20;;
6089;SDS011;3073;42.660;23.316;2023-09-19T14:50:03;29.25;;;21.40;;
6089;SDS011;3073;42.660;23.316;2023-09-19T14:52:31;32.38;;;18.58;;
6089;SDS011;3073;42.660;23.316;2023-09-19T14:54:59;27.80;;;17.38;;
6089;SDS011;3073;42.660;23.316;2023-09-19T14:57:27;27.98;;;13.52;;
6089;SDS011;3073;42.660;23.316;2023-09-19T14:59:54;20.60;;;12.48;;
6089;SDS011;3073;42.660;23.316;2023-09-19T15:02:21;15.85;;;10.93;;
6089;SDS011;3073;42.660;23.316;2023-09-19T15:04:48;17.67;;;10.95;;
6089;SDS011;3073;42.660;23.316;2023-09-19T15:07:17;16.80;;;11.60;;
6089;SDS011;3073;42.660;23.316;2023-09-19T15:09:44;15.80;;;7.32;;
6089;SDS011;3073;42.660;23.316;2023-09-19T15:12:12;12.07;;;7.38;;
6089;SDS011;3073;42.660;23.316;2023-09-19T15:14:40;12.13;;;6.53;;
6089;SDS011;3073;42.660;23.316;2023-09-19T15:17:07;14.55;;;8.18;;
6089;SDS011;3073;42.660;23.316;2023-09-19T15:19:34;15.38;;;7.95;;
6089;SDS011;3073;42.660;23.316;2023-09-19T15:22:03;19.13;;;9.15;;
6089;SDS011;3073;42.660;23.316;2023-09-19T15:24:32;22.20;;;10.50;;